createdAt,value
2017-03-11T00:00:43.881Z,0
2017-03-11T00:01:54.352Z,0
2017-03-11T00:03:03.611Z,0
2017-03-11T00:04:15.225Z,0
2017-03-11T00:05:24.988Z,0
2017-03-11T00:06:36.023Z,0
2017-03-11T00:07:46.684Z,0
2017-03-11T00:08:56.042Z,0
2017-03-11T00:10:07.542Z,0
2017-03-11T00:11:17.424Z,0
2017-03-11T00:12:28.608Z,0
2017-03-11T00:13:40.922Z,0
2017-03-11T00:14:51.170Z,0
2017-03-11T00:16:02.066Z,0
2017-03-11T00:17:14.966Z,0
2017-03-11T00:18:24.996Z,0
2017-03-11T00:19:36.200Z,0
2017-03-11T00:20:48.128Z,0
2017-03-11T00:21:58.355Z,0
2017-03-11T00:23:09.154Z,0
2017-03-11T00:24:20.770Z,0
2017-03-11T00:25:30.952Z,0
2017-03-11T00:26:41.760Z,0
2017-03-11T00:27:53.245Z,0
2017-03-11T00:29:03.661Z,0
2017-03-11T00:30:12.670Z,0
2017-03-11T00:31:23.987Z,0
2017-03-11T00:32:34.409Z,0
2017-03-11T00:33:45.071Z,0
2017-03-11T00:34:57.542Z,0
2017-03-11T00:36:07.825Z,0
2017-03-11T00:37:18.754Z,0
2017-03-11T00:38:31.056Z,0
2017-03-11T00:39:41.511Z,0
2017-03-11T00:40:52.168Z,0
2017-03-11T00:42:04.817Z,0
2017-03-11T00:43:14.968Z,0
2017-03-11T00:44:25.962Z,0
2017-03-11T00:45:38.111Z,0
2017-03-11T00:46:48.145Z,0
2017-03-11T00:47:59.122Z,0
2017-03-11T00:49:11.029Z,0
2017-03-11T00:50:21.206Z,0
2017-03-11T00:51:32.529Z,0
2017-03-11T00:52:43.315Z,0
2017-03-11T00:53:52.519Z,0
2017-03-11T00:55:04.074Z,0
2017-03-11T00:56:14.255Z,0
2017-03-11T00:57:25.062Z,0
2017-03-11T00:58:37.351Z,0
2017-03-11T00:59:47.075Z,0
2017-03-11T01:00:58.302Z,0
2017-03-11T01:02:08.891Z,0
2017-03-11T01:03:17.913Z,0
2017-03-11T01:04:29.522Z,0
2017-03-11T01:05:38.914Z,0
2017-03-11T01:06:48.758Z,0
2017-03-11T01:07:59.080Z,0
2017-03-11T01:09:09.295Z,0
2017-03-11T01:10:19.294Z,0
2017-03-11T01:11:28.870Z,0
2017-03-11T01:12:41.100Z,0
2017-03-11T01:13:51.074Z,0
2017-03-11T01:15:02.245Z,0
2017-03-11T01:16:14.076Z,0
2017-03-11T01:17:23.853Z,0
2017-03-11T01:18:35.193Z,0
2017-03-11T01:19:45.886Z,0
2017-03-11T01:20:54.911Z,0
2017-03-11T01:22:06.620Z,0
2017-03-11T01:23:16.511Z,0
2017-03-11T01:24:28.045Z,0
2017-03-11T01:25:40.471Z,0
2017-03-11T01:26:50.838Z,0
2017-03-11T01:28:01.231Z,0
2017-03-11T01:29:14.011Z,0
2017-03-11T01:30:24.063Z,0
2017-03-11T01:31:35.017Z,0
2017-03-11T01:32:47.651Z,0
2017-03-11T01:33:57.663Z,0
2017-03-11T01:35:08.796Z,0
2017-03-11T01:36:21.099Z,0
2017-03-11T01:37:31.490Z,0
2017-03-11T01:38:42.134Z,0
2017-03-11T01:39:55.043Z,0
2017-03-11T01:41:04.575Z,0
2017-03-11T01:42:15.631Z,0
2017-03-11T01:43:28.206Z,0
2017-03-11T01:44:38.546Z,0
2017-03-11T01:45:49.251Z,0
2017-03-11T01:47:01.687Z,0
2017-03-11T01:48:11.938Z,0
2017-03-11T01:49:23.005Z,0
2017-03-11T01:50:35.703Z,0
2017-03-11T01:51:45.867Z,0
2017-03-11T01:52:54.897Z,0
2017-03-11T01:54:03.961Z,0
2017-03-11T01:55:13.246Z,0
2017-03-11T01:56:22.257Z,0
2017-03-11T01:57:31.276Z,0
2017-03-11T01:58:40.286Z,0
2017-03-11T01:59:49.299Z,0
2017-03-11T02:00:58.616Z,0
2017-03-11T02:02:07.657Z,0
2017-03-11T02:03:16.700Z,0
2017-03-11T02:04:25.716Z,0
2017-03-11T02:05:34.742Z,0
2017-03-11T02:06:44.064Z,0
2017-03-11T02:07:53.075Z,0
2017-03-11T02:09:02.617Z,0
2017-03-11T02:10:11.651Z,0
2017-03-11T02:11:20.669Z,0
2017-03-11T02:12:29.946Z,0
2017-03-11T02:13:38.988Z,0
2017-03-11T02:14:48.107Z,0
2017-03-11T02:15:57.537Z,0
2017-03-11T02:17:06.591Z,0
2017-03-11T02:18:15.972Z,0
2017-03-11T02:19:25.108Z,0
2017-03-11T02:20:34.238Z,0
2017-03-11T02:21:43.676Z,0
2017-03-11T02:22:52.700Z,0
2017-03-11T02:24:01.973Z,0
2017-03-11T02:25:10.987Z,0
2017-03-11T02:26:19.998Z,0
2017-03-11T02:27:29.022Z,0
2017-03-11T02:28:38.486Z,0
2017-03-11T02:29:47.860Z,0
2017-03-11T02:30:56.909Z,0
2017-03-11T02:32:05.946Z,0
2017-03-11T02:33:14.981Z,0
2017-03-11T02:34:24.089Z,0
2017-03-11T02:35:33.386Z,0
2017-03-11T02:36:42.394Z,0
2017-03-11T02:37:51.421Z,0
2017-03-11T02:39:00.450Z,0
2017-03-11T02:40:09.475Z,0
2017-03-11T02:41:18.764Z,0
2017-03-11T02:42:27.774Z,0
2017-03-11T02:43:38.833Z,0
2017-03-11T02:44:49.723Z,0
2017-03-11T02:45:59.668Z,0
2017-03-11T02:47:10.906Z,0
2017-03-11T02:48:23.325Z,0
2017-03-11T02:49:33.205Z,0
2017-03-11T02:50:44.262Z,0
2017-03-11T02:51:56.078Z,0
2017-03-11T02:53:06.134Z,0
2017-03-11T02:54:17.285Z,0
2017-03-11T02:55:27.860Z,0
2017-03-11T02:56:36.893Z,0
2017-03-11T02:57:46.023Z,0
2017-03-11T02:58:55.319Z,0
2017-03-11T03:00:04.556Z,0
2017-03-11T03:01:13.982Z,0
2017-03-11T03:02:23.018Z,0
2017-03-11T03:03:32.284Z,0
2017-03-11T03:04:44.556Z,0
2017-03-11T03:05:54.927Z,0
2017-03-11T03:07:05.614Z,0
2017-03-11T03:08:18.196Z,0
2017-03-11T03:09:28.233Z,0
2017-03-11T03:10:39.105Z,0
2017-03-11T03:11:51.615Z,0
2017-03-11T03:13:01.692Z,0
2017-03-11T03:14:12.891Z,0
2017-03-11T03:15:25.102Z,0
2017-03-11T03:16:35.485Z,0
2017-03-11T03:17:46.163Z,0
2017-03-11T03:18:58.648Z,0
2017-03-11T03:20:08.876Z,0
2017-03-11T03:21:19.855Z,0
2017-03-11T03:22:32.768Z,0
2017-03-11T03:23:42.756Z,0
2017-03-11T03:24:53.228Z,0
2017-03-11T03:26:05.871Z,0
2017-03-11T03:27:15.502Z,0
2017-03-11T03:28:25.824Z,0
2017-03-11T03:29:38.342Z,0
2017-03-11T03:30:47.754Z,0
2017-03-11T03:31:57.288Z,0
2017-03-11T03:33:08.136Z,0
2017-03-11T03:34:18.511Z,0
2017-03-11T03:35:29.130Z,0
2017-03-11T03:36:41.632Z,0
2017-03-11T03:37:51.820Z,0
2017-03-11T03:39:02.814Z,0
2017-03-11T03:40:15.114Z,0
2017-03-11T03:41:25.352Z,0
2017-03-11T03:42:36.167Z,0
2017-03-11T03:43:48.810Z,0
2017-03-11T03:44:59.087Z,0
2017-03-11T03:46:09.739Z,0
2017-03-11T03:47:22.359Z,0
2017-03-11T03:48:32.695Z,0
2017-03-11T03:49:43.393Z,0
2017-03-11T03:50:56.267Z,0
2017-03-11T03:52:06.522Z,0
2017-03-11T03:53:16.869Z,0
2017-03-11T03:54:29.514Z,0
2017-03-11T03:55:39.804Z,0
2017-03-11T03:56:50.348Z,0
2017-03-11T03:58:02.985Z,0
2017-03-11T03:59:13.352Z,0
2017-03-11T04:00:24.070Z,0
2017-03-11T04:01:36.669Z,0
2017-03-11T04:02:46.971Z,0
2017-03-11T04:03:57.738Z,0
2017-03-11T04:05:10.322Z,0
2017-03-11T04:06:20.472Z,0
2017-03-11T04:07:31.185Z,0
2017-03-11T04:08:43.726Z,0
2017-03-11T04:09:53.961Z,0
2017-03-11T04:11:04.622Z,0
2017-03-11T04:12:17.154Z,0
2017-03-11T04:13:27.554Z,0
2017-03-11T04:14:38.219Z,0
2017-03-11T04:15:50.943Z,0
2017-03-11T04:17:01.094Z,0
2017-03-11T04:18:11.943Z,0
2017-03-11T04:19:24.539Z,0
2017-03-11T04:20:34.735Z,0
2017-03-11T04:21:45.389Z,0
2017-03-11T04:22:57.886Z,0
2017-03-11T04:24:08.062Z,0
2017-03-11T04:25:18.912Z,0
2017-03-11T04:26:31.341Z,0
2017-03-11T04:27:41.820Z,0
2017-03-11T04:28:52.511Z,0
2017-03-11T04:30:04.914Z,0
2017-03-11T04:31:15.167Z,0
2017-03-11T04:32:25.938Z,0
2017-03-11T04:33:38.394Z,0
2017-03-11T04:34:48.761Z,0
2017-03-11T04:35:59.515Z,0
2017-03-11T04:37:11.468Z,0
2017-03-11T04:38:22.327Z,0
2017-03-11T04:39:33.283Z,0
2017-03-11T04:40:45.550Z,0
2017-03-11T04:41:54.821Z,0
2017-03-11T04:43:04.263Z,0
2017-03-11T04:44:13.674Z,0
2017-03-11T04:45:23.682Z,0
2017-03-11T04:46:33.209Z,0
2017-03-11T04:47:43.501Z,0
2017-03-11T04:48:53.682Z,0
2017-03-11T04:50:03.171Z,0
2017-03-11T04:51:15.219Z,0
2017-03-11T04:52:25.021Z,0
2017-03-11T04:53:36.467Z,0
2017-03-11T04:54:48.831Z,0
2017-03-11T04:55:57.945Z,0
2017-03-11T04:57:07.353Z,0
2017-03-11T04:58:16.385Z,0
2017-03-11T04:59:25.502Z,0
2017-03-11T05:00:34.549Z,0
2017-03-11T05:01:43.671Z,0
2017-03-11T05:02:53.050Z,0
2017-03-11T05:04:02.168Z,0
2017-03-11T05:05:11.211Z,4
2017-03-11T05:06:20.239Z,0
2017-03-11T05:07:29.341Z,4
2017-03-11T05:08:38.706Z,4
2017-03-11T05:09:47.719Z,4
2017-03-11T05:10:56.755Z,8
2017-03-11T05:12:05.769Z,4
2017-03-11T05:13:14.893Z,4
2017-03-11T05:14:24.158Z,8
2017-03-11T05:15:33.206Z,8
2017-03-11T05:16:42.365Z,12
2017-03-11T05:17:51.902Z,12
2017-03-11T05:19:00.923Z,16
2017-03-11T05:20:10.639Z,16
2017-03-11T05:21:19.657Z,20
2017-03-11T05:22:28.685Z,24
2017-03-11T05:23:37.724Z,28
2017-03-11T05:24:46.753Z,28
2017-03-11T05:25:56.033Z,32
2017-03-11T05:27:05.490Z,36
2017-03-11T05:28:14.518Z,40
2017-03-11T05:29:23.551Z,40
2017-03-11T05:30:32.586Z,44
2017-03-11T05:31:42.276Z,48
2017-03-11T05:32:51.821Z,56
2017-03-11T05:34:00.855Z,64
2017-03-11T05:35:09.885Z,68
2017-03-11T05:36:19.301Z,72
2017-03-11T05:37:28.612Z,76
2017-03-11T05:38:37.649Z,84
2017-03-11T05:39:46.764Z,92
2017-03-11T05:40:55.799Z,100
2017-03-11T05:42:04.929Z,104
2017-03-11T05:43:14.194Z,112
2017-03-11T05:44:23.222Z,120
2017-03-11T05:45:32.260Z,128
2017-03-11T05:46:41.296Z,136
2017-03-11T05:47:50.311Z,140
2017-03-11T05:48:59.768Z,148
2017-03-11T05:50:08.778Z,156
2017-03-11T05:51:17.808Z,172
2017-03-11T05:52:26.832Z,196
2017-03-11T05:53:35.891Z,216
2017-03-11T05:54:45.193Z,232
2017-03-11T05:55:54.219Z,252
2017-03-11T05:57:03.248Z,264
2017-03-11T05:58:12.289Z,272
2017-03-11T05:59:21.325Z,284
2017-03-11T06:00:30.619Z,288
2017-03-11T06:01:39.669Z,304
2017-03-11T06:02:48.671Z,316
2017-03-11T06:03:57.690Z,344
2017-03-11T06:05:07.147Z,372
2017-03-11T06:06:16.431Z,396
2017-03-11T06:07:25.460Z,420
2017-03-11T06:08:34.574Z,428
2017-03-11T06:09:43.595Z,440
2017-03-11T06:10:52.626Z,444
2017-03-11T06:12:01.915Z,456
2017-03-11T06:13:10.942Z,472
2017-03-11T06:14:19.970Z,464
2017-03-11T06:15:28.987Z,472
2017-03-11T06:16:38.010Z,464
2017-03-11T06:17:47.381Z,452
2017-03-11T06:18:56.412Z,444
2017-03-11T06:20:05.443Z,452
2017-03-11T06:21:14.491Z,448
2017-03-11T06:22:23.597Z,452
2017-03-11T06:23:32.959Z,460
2017-03-11T06:24:42.080Z,472
2017-03-11T06:25:51.098Z,528
2017-03-11T06:27:00.160Z,584
2017-03-11T06:28:09.191Z,604
2017-03-11T06:29:18.469Z,640
2017-03-11T06:30:27.483Z,692
2017-03-11T06:31:36.506Z,720
2017-03-11T06:32:45.623Z,720
2017-03-11T06:33:54.690Z,720
2017-03-11T06:35:04.005Z,740
2017-03-11T06:36:13.458Z,752
2017-03-11T06:37:22.472Z,760
2017-03-11T06:38:31.588Z,768
2017-03-11T06:39:40.639Z,800
2017-03-11T06:40:50.073Z,840
2017-03-11T06:41:59.101Z,888
2017-03-11T06:43:08.150Z,948
2017-03-11T06:44:17.193Z,976
2017-03-11T06:45:26.208Z,1012
2017-03-11T06:46:35.475Z,1048
2017-03-11T06:47:44.649Z,1072
2017-03-11T06:48:54.202Z,1064
2017-03-11T06:50:03.236Z,1104
2017-03-11T06:51:12.536Z,1120
2017-03-11T06:52:22.475Z,1212
2017-03-11T06:53:31.588Z,1260
2017-03-11T06:54:40.667Z,1152
2017-03-11T06:55:49.763Z,1032
2017-03-11T06:56:58.877Z,1040
2017-03-11T06:58:08.326Z,1080
2017-03-11T06:59:17.431Z,1116
2017-03-11T07:00:26.592Z,1164
2017-03-11T07:01:35.815Z,1228
2017-03-11T07:02:45.056Z,1264
2017-03-11T07:03:54.569Z,1264
2017-03-11T07:05:03.628Z,1320
2017-03-11T07:06:12.686Z,1344
2017-03-11T07:07:21.737Z,1436
2017-03-11T07:08:30.767Z,1448
2017-03-11T07:09:40.339Z,1456
2017-03-11T07:10:50.013Z,1484
2017-03-11T07:11:59.112Z,1564
2017-03-11T07:13:08.232Z,1672
2017-03-11T07:14:17.275Z,1744
2017-03-11T07:15:26.597Z,1836
2017-03-11T07:16:35.627Z,1928
2017-03-11T07:17:44.993Z,2040
2017-03-11T07:18:54.892Z,2128
2017-03-11T07:20:04.028Z,2196
2017-03-11T07:21:13.376Z,2200
2017-03-11T07:22:22.415Z,2180
2017-03-11T07:23:31.580Z,2112
2017-03-11T07:24:41.221Z,2028
2017-03-11T07:25:50.731Z,2040
2017-03-11T07:27:00.014Z,2100
2017-03-11T07:28:09.029Z,2140
2017-03-11T07:29:18.352Z,2160
2017-03-11T07:30:27.384Z,2168
2017-03-11T07:31:36.415Z,2168
2017-03-11T07:32:46.026Z,2156
2017-03-11T07:33:55.260Z,2128
2017-03-11T07:35:04.487Z,2156
2017-03-11T07:36:14.358Z,2152
2017-03-11T07:37:25.322Z,2120
2017-03-11T07:38:34.653Z,2076
2017-03-11T07:39:43.686Z,2036
2017-03-11T07:40:52.717Z,2000
2017-03-11T07:42:01.737Z,2000
2017-03-11T07:43:10.847Z,2116
2017-03-11T07:44:20.427Z,2188
2017-03-11T07:45:29.437Z,2216
2017-03-11T07:46:38.460Z,2236
2017-03-11T07:47:47.596Z,2300
2017-03-11T07:48:56.725Z,2400
2017-03-11T07:50:06.456Z,2504
2017-03-11T07:51:15.473Z,2552
2017-03-11T07:52:24.608Z,2556
2017-03-11T07:53:33.751Z,2604
2017-03-11T07:54:42.783Z,2676
2017-03-11T07:55:52.101Z,2752
2017-03-11T07:57:01.153Z,2856
2017-03-11T07:58:10.165Z,2932
2017-03-11T07:59:19.186Z,2984
2017-03-11T08:00:28.207Z,2972
2017-03-11T08:01:37.947Z,2932
2017-03-11T08:02:46.974Z,2944
2017-03-11T08:03:56.005Z,3004
2017-03-11T08:05:05.553Z,3144
2017-03-11T08:06:14.689Z,3264
2017-03-11T08:07:24.185Z,3312
2017-03-11T08:08:33.294Z,3276
2017-03-11T08:09:42.473Z,3268
2017-03-11T08:10:51.923Z,3264
2017-03-11T08:12:01.058Z,3304
2017-03-11T08:13:10.395Z,3372
2017-03-11T08:14:19.557Z,3420
2017-03-11T08:15:28.672Z,3424
2017-03-11T08:16:37.695Z,3432
2017-03-11T08:17:46.773Z,3472
2017-03-11T08:18:56.216Z,3540
2017-03-11T08:20:05.746Z,3612
2017-03-11T08:21:14.781Z,3656
2017-03-11T08:22:23.894Z,3664
2017-03-11T08:23:33.057Z,3676
2017-03-11T08:24:42.365Z,3740
2017-03-11T08:25:51.363Z,3700
2017-03-11T08:27:00.447Z,3720
2017-03-11T08:28:09.925Z,3720
2017-03-11T08:29:19.406Z,3884
2017-03-11T08:30:28.908Z,4052
2017-03-11T08:31:37.949Z,4156
2017-03-11T08:32:46.952Z,4108
2017-03-11T08:33:55.978Z,3992
2017-03-11T08:35:04.992Z,4004
2017-03-11T08:36:14.233Z,4076
2017-03-11T08:37:23.243Z,4088
2017-03-11T08:38:32.516Z,4024
2017-03-11T08:39:41.617Z,3984
2017-03-11T08:40:50.622Z,4044
2017-03-11T08:42:00.085Z,3976
2017-03-11T08:43:09.091Z,3916
2017-03-11T08:44:19.473Z,3956
2017-03-11T08:45:31.075Z,3924
2017-03-11T08:46:42.345Z,3900
2017-03-11T08:47:52.042Z,4024
2017-03-11T08:49:01.033Z,4088
2017-03-11T08:50:10.031Z,4216
2017-03-11T08:51:19.024Z,4428
2017-03-11T08:52:28.049Z,4520
2017-03-11T08:53:37.532Z,4508
2017-03-11T08:54:46.621Z,4420
2017-03-11T08:55:55.612Z,4448
2017-03-11T08:57:04.598Z,4500
2017-03-11T08:58:14.018Z,4460
2017-03-11T08:59:23.254Z,4460
2017-03-11T09:00:32.511Z,4548
2017-03-11T09:01:41.521Z,4556
2017-03-11T09:02:50.535Z,4524
2017-03-11T09:03:59.509Z,4428
2017-03-11T09:05:08.753Z,4464
2017-03-11T09:06:17.898Z,4524
2017-03-11T09:07:26.891Z,4552
2017-03-11T09:08:35.959Z,4596
2017-03-11T09:09:45.042Z,4624
2017-03-11T09:10:54.698Z,4600
2017-03-11T09:12:03.907Z,4536
2017-03-11T09:13:12.892Z,4372
2017-03-11T09:14:21.997Z,4132
2017-03-11T09:15:31.044Z,4160
2017-03-11T09:16:40.343Z,4264
2017-03-11T09:17:49.984Z,4360
2017-03-11T09:18:59.122Z,4448
2017-03-11T09:20:08.209Z,4420
2017-03-11T09:21:17.238Z,4296
2017-03-11T09:22:26.472Z,4160
2017-03-11T09:23:35.464Z,4156
2017-03-11T09:24:44.913Z,4188
2017-03-11T09:25:54.431Z,4172
2017-03-11T09:27:03.460Z,4172
2017-03-11T09:28:13.091Z,4184
2017-03-11T09:29:22.098Z,4296
2017-03-11T09:30:31.086Z,4356
2017-03-11T09:31:40.101Z,4256
2017-03-11T09:32:49.120Z,4100
2017-03-11T09:33:58.437Z,3952
2017-03-11T09:35:07.427Z,3896
2017-03-11T09:36:16.640Z,3900
2017-03-11T09:37:25.791Z,3916
2017-03-11T09:38:35.208Z,4032
2017-03-11T09:39:44.648Z,4140
2017-03-11T09:40:54.094Z,4148
2017-03-11T09:42:03.078Z,4072
2017-03-11T09:43:12.410Z,4144
2017-03-11T09:44:21.410Z,4352
2017-03-11T09:45:31.271Z,4456
2017-03-11T09:46:40.269Z,4576
2017-03-11T09:47:49.673Z,4604
2017-03-11T09:48:58.652Z,4596
2017-03-11T09:50:08.147Z,4612
2017-03-11T09:51:17.458Z,4592
2017-03-11T09:52:26.598Z,4556
2017-03-11T09:53:35.704Z,4628
2017-03-11T09:54:44.834Z,4516
2017-03-11T09:55:54.374Z,4404
2017-03-11T09:57:04.120Z,4420
2017-03-11T09:58:13.241Z,4452
2017-03-11T09:59:22.805Z,4528
2017-03-11T10:00:31.962Z,4584
2017-03-11T10:01:41.151Z,4444
2017-03-11T10:02:50.492Z,4396
2017-03-11T10:03:59.477Z,4440
2017-03-11T10:05:08.644Z,4352
2017-03-11T10:06:17.767Z,4156
2017-03-11T10:07:27.214Z,4060
2017-03-11T10:08:36.458Z,4220
2017-03-11T10:09:45.630Z,4312
2017-03-11T10:10:54.758Z,4252
2017-03-11T10:12:03.765Z,4348
2017-03-11T10:13:12.746Z,4428
2017-03-11T10:14:22.076Z,4524
2017-03-11T10:15:31.172Z,4496
2017-03-11T10:16:40.435Z,4436
2017-03-11T10:17:49.665Z,4632
2017-03-11T10:18:59.067Z,4800
2017-03-11T10:20:08.794Z,4660
2017-03-11T10:21:17.896Z,4476
2017-03-11T10:22:27.276Z,4516
2017-03-11T10:23:36.295Z,4476
2017-03-11T10:24:45.436Z,4392
2017-03-11T10:25:54.894Z,4528
2017-03-11T10:27:04.466Z,4836
2017-03-11T10:28:13.496Z,4828
2017-03-11T10:29:22.490Z,4752
2017-03-11T10:30:31.494Z,4996
2017-03-11T10:31:40.755Z,4940
2017-03-11T10:32:49.810Z,4868
2017-03-11T10:33:58.832Z,4836
2017-03-11T10:35:07.935Z,4980
2017-03-11T10:36:17.512Z,4900
2017-03-11T10:37:26.855Z,4852
2017-03-11T10:38:35.842Z,4760
2017-03-11T10:39:45.007Z,4644
2017-03-11T10:40:54.005Z,4652
2017-03-11T10:42:03.090Z,4488
2017-03-11T10:43:12.351Z,4184
2017-03-11T10:44:21.441Z,4184
2017-03-11T10:45:30.535Z,4284
2017-03-11T10:46:39.532Z,4368
2017-03-11T10:47:48.526Z,4352
2017-03-11T10:48:57.865Z,4392
2017-03-11T10:50:06.941Z,4440
2017-03-11T10:51:15.934Z,4448
2017-03-11T10:52:24.938Z,4292
2017-03-11T10:53:33.956Z,4168
2017-03-11T10:54:43.307Z,4036
2017-03-11T10:55:52.320Z,4096
2017-03-11T10:57:01.312Z,3932
2017-03-11T10:58:10.320Z,4300
2017-03-11T10:59:19.315Z,4792
2017-03-11T11:00:28.614Z,4804
2017-03-11T11:01:37.601Z,4992
2017-03-11T11:02:46.656Z,5272
2017-03-11T11:03:55.738Z,5408
2017-03-11T11:05:04.734Z,5344
2017-03-11T11:06:14.033Z,5364
2017-03-11T11:07:23.443Z,4980
2017-03-11T11:08:32.443Z,4500
2017-03-11T11:09:41.442Z,4472
2017-03-11T11:10:50.773Z,4836
2017-03-11T11:12:00.256Z,4820
2017-03-11T11:13:09.262Z,4472
2017-03-11T11:14:18.263Z,4152
2017-03-11T11:15:27.266Z,4704
2017-03-11T11:16:36.345Z,4964
2017-03-11T11:17:46.141Z,4600
2017-03-11T11:18:55.233Z,4712
2017-03-11T11:20:04.735Z,4524
2017-03-11T11:21:13.752Z,4284
2017-03-11T11:22:22.756Z,4100
2017-03-11T11:23:32.010Z,4244
2017-03-11T11:24:41.097Z,4336
2017-03-11T11:25:50.091Z,4448
2017-03-11T11:26:59.070Z,4660
2017-03-11T11:28:08.073Z,4700
2017-03-11T11:29:17.456Z,4784
2017-03-11T11:30:26.940Z,4580
2017-03-11T11:31:35.954Z,4524
2017-03-11T11:32:45.080Z,4508
2017-03-11T11:33:54.172Z,4392
2017-03-11T11:35:03.435Z,4236
2017-03-11T11:36:12.509Z,4516
2017-03-11T11:37:21.513Z,4896
2017-03-11T11:38:30.560Z,5004
2017-03-11T11:39:39.609Z,5036
2017-03-11T11:40:49.035Z,5008
2017-03-11T11:41:58.103Z,5100
2017-03-11T11:43:07.230Z,5068
2017-03-11T11:44:16.234Z,5012
2017-03-11T11:45:25.228Z,4828
2017-03-11T11:46:34.465Z,4628
2017-03-11T11:47:43.575Z,4560
2017-03-11T11:48:52.813Z,4420
2017-03-11T11:50:01.819Z,4404
2017-03-11T11:51:10.812Z,4556
2017-03-11T11:52:20.896Z,4724
2017-03-11T11:53:30.071Z,4836
2017-03-11T11:54:39.057Z,4800
2017-03-11T11:55:48.119Z,4480
2017-03-11T11:56:57.262Z,4140
2017-03-11T11:58:06.562Z,3972
2017-03-11T11:59:15.654Z,3656
2017-03-11T12:00:24.702Z,4012
2017-03-11T12:01:33.681Z,4516
2017-03-11T12:02:42.680Z,4144
2017-03-11T12:03:51.693Z,3648
2017-03-11T12:05:00.698Z,3736
2017-03-11T12:06:09.826Z,3508
2017-03-11T12:07:18.828Z,3292
2017-03-11T12:08:27.905Z,3584
2017-03-11T12:09:36.899Z,3560
2017-03-11T12:10:45.911Z,3544
2017-03-11T12:11:54.895Z,3528
2017-03-11T12:13:03.980Z,3456
2017-03-11T12:14:13.139Z,3316
2017-03-11T12:15:22.240Z,3364
2017-03-11T12:16:31.291Z,2948
2017-03-11T12:17:40.390Z,2788
2017-03-11T12:18:50.044Z,2852
2017-03-11T12:19:59.219Z,3048
2017-03-11T12:21:08.527Z,3140
2017-03-11T12:22:17.824Z,3352
2017-03-11T12:23:26.814Z,3436
2017-03-11T12:24:36.139Z,3668
2017-03-11T12:25:45.546Z,3880
2017-03-11T12:26:55.050Z,3728
2017-03-11T12:28:04.122Z,3476
2017-03-11T12:29:13.118Z,3392
2017-03-11T12:30:22.410Z,3228
2017-03-11T12:31:31.394Z,3300
2017-03-11T12:32:40.557Z,3212
2017-03-11T12:33:49.925Z,3140
2017-03-11T12:34:59.074Z,2272
2017-03-11T12:36:08.394Z,1776
2017-03-11T12:37:17.491Z,1692
2017-03-11T12:38:26.706Z,1504
2017-03-11T12:39:35.808Z,1328
2017-03-11T12:40:44.803Z,1220
2017-03-11T12:41:54.512Z,1448
2017-03-11T12:43:03.502Z,1468
2017-03-11T12:44:12.569Z,1140
2017-03-11T12:45:21.646Z,1440
2017-03-11T12:46:36.209Z,1640
2017-03-11T12:47:47.252Z,1816
2017-03-11T12:48:56.247Z,2056
2017-03-11T12:50:05.635Z,2264
2017-03-11T12:51:14.633Z,2684
2017-03-11T12:52:23.625Z,2672
2017-03-11T12:53:32.864Z,2784
2017-03-11T12:54:42.366Z,3312
2017-03-11T12:55:51.762Z,3296
2017-03-11T12:57:00.741Z,2928
2017-03-11T12:58:09.731Z,2988
2017-03-11T12:59:21.343Z,2716
2017-03-11T13:00:30.442Z,2584
2017-03-11T13:01:39.437Z,2716
2017-03-11T13:02:48.433Z,2772
2017-03-11T13:03:57.414Z,2680
2017-03-11T13:05:06.662Z,2584
2017-03-11T13:06:15.668Z,2292
2017-03-11T13:07:25.328Z,2316
2017-03-11T13:08:34.362Z,1700
2017-03-11T13:09:43.380Z,2232
2017-03-11T13:10:52.683Z,1748
2017-03-11T13:12:01.782Z,1816
2017-03-11T13:13:10.767Z,2048
2017-03-11T13:14:19.951Z,2172
2017-03-11T13:15:28.941Z,2364
2017-03-11T13:16:38.202Z,2432
2017-03-11T13:17:47.289Z,2232
2017-03-11T13:18:56.301Z,2052
2017-03-11T13:20:05.406Z,2252
2017-03-11T13:21:14.908Z,2320
2017-03-11T13:22:24.155Z,2812
2017-03-11T13:23:33.171Z,2796
2017-03-11T13:24:42.177Z,2408
2017-03-11T13:25:51.185Z,2160
2017-03-11T13:27:00.185Z,2240
2017-03-11T13:28:09.426Z,2244
2017-03-11T13:29:18.427Z,2048
2017-03-11T13:30:27.442Z,2380
2017-03-11T13:31:36.425Z,2440
2017-03-11T13:32:45.503Z,2700
2017-03-11T13:33:54.984Z,3060
2017-03-11T13:35:03.994Z,3568
2017-03-11T13:36:13.004Z,4212
2017-03-11T13:37:22.030Z,4708
2017-03-11T13:38:31.037Z,4304
2017-03-11T13:39:40.409Z,3652
2017-03-11T13:40:49.517Z,3216
2017-03-11T13:41:58.539Z,3188
2017-03-11T13:43:07.532Z,3268
2017-03-11T13:44:16.512Z,2968
2017-03-11T13:45:25.807Z,2652
2017-03-11T13:46:34.807Z,2512
2017-03-11T13:47:43.821Z,2720
2017-03-11T13:48:52.808Z,2844
2017-03-11T13:50:01.888Z,2432
2017-03-11T13:51:11.683Z,2136
2017-03-11T13:52:20.757Z,1952
2017-03-11T13:53:29.831Z,1660
2017-03-11T13:54:39.001Z,1380
2017-03-11T13:55:48.003Z,1092
2017-03-11T13:56:57.262Z,852
2017-03-11T13:58:06.351Z,796
2017-03-11T13:59:15.344Z,784
2017-03-11T14:00:24.794Z,784
2017-03-11T14:01:33.781Z,788
2017-03-11T14:02:43.026Z,820
2017-03-11T14:03:52.024Z,1008
2017-03-11T14:05:01.022Z,1108
2017-03-11T14:06:10.009Z,948
2017-03-11T14:07:19.074Z,904
2017-03-11T14:08:28.380Z,1388
2017-03-11T14:09:37.801Z,1388
2017-03-11T14:10:47.058Z,1384
2017-03-11T14:11:56.069Z,1392
2017-03-11T14:13:05.054Z,1392
2017-03-11T14:14:14.444Z,1388
2017-03-11T14:15:23.450Z,1388
2017-03-11T14:16:32.456Z,1388
2017-03-11T14:17:41.449Z,1384
2017-03-11T14:18:50.449Z,1404
2017-03-11T14:19:59.756Z,1436
2017-03-11T14:21:08.836Z,1476
2017-03-11T14:22:17.833Z,1536
2017-03-11T14:23:26.826Z,1624
2017-03-11T14:24:36.307Z,1768
2017-03-11T14:25:45.968Z,1852
2017-03-11T14:26:54.969Z,1992
2017-03-11T14:28:03.954Z,2096
2017-03-11T14:29:12.944Z,2212
2017-03-11T14:30:21.925Z,2248
2017-03-11T14:31:31.174Z,2540
2017-03-11T14:32:40.265Z,2676
2017-03-11T14:33:49.275Z,2788
2017-03-11T14:34:58.293Z,2776
2017-03-11T14:36:07.287Z,3244
2017-03-11T14:37:16.634Z,3368
2017-03-11T14:38:25.621Z,3320
2017-03-11T14:39:34.600Z,3364
2017-03-11T14:40:43.681Z,3072
2017-03-11T14:41:52.673Z,2972
2017-03-11T14:43:01.916Z,2796
2017-03-11T14:44:10.905Z,2664
2017-03-11T14:45:19.971Z,2584
2017-03-11T14:46:29.147Z,2484
2017-03-11T14:47:38.141Z,2436
2017-03-11T14:48:47.547Z,2256
2017-03-11T14:49:56.644Z,2056
2017-03-11T14:51:05.650Z,1880
2017-03-11T14:52:14.633Z,1848
2017-03-11T14:53:23.627Z,1788
2017-03-11T14:54:33.058Z,1452
2017-03-11T14:55:42.221Z,1532
2017-03-11T14:56:51.244Z,1324
2017-03-11T14:58:00.234Z,1324
2017-03-11T14:59:09.243Z,1364
2017-03-11T15:00:18.499Z,1376
2017-03-11T15:01:28.026Z,1240
2017-03-11T15:02:37.110Z,1144
2017-03-11T15:03:46.219Z,1056
2017-03-11T15:04:55.243Z,1004
2017-03-11T15:06:05.187Z,956
2017-03-11T15:07:14.309Z,924
2017-03-11T15:08:23.387Z,884
2017-03-11T15:09:32.382Z,804
2017-03-11T15:10:41.629Z,712
2017-03-11T15:11:51.056Z,644
2017-03-11T15:13:00.130Z,628
2017-03-11T15:14:09.304Z,616
2017-03-11T15:15:18.478Z,596
2017-03-11T15:16:27.487Z,584
2017-03-11T15:17:36.767Z,580
2017-03-11T15:18:45.757Z,576
2017-03-11T15:19:54.762Z,576
2017-03-11T15:21:03.803Z,580
2017-03-11T15:22:12.937Z,584
2017-03-11T15:23:22.265Z,588
2017-03-11T15:24:31.264Z,592
2017-03-11T15:25:40.681Z,600
2017-03-11T15:26:49.799Z,600
2017-03-11T15:27:59.031Z,600
2017-03-11T15:29:08.815Z,600
2017-03-11T15:30:17.849Z,596
2017-03-11T15:31:26.941Z,588
2017-03-11T15:32:36.163Z,580
2017-03-11T15:33:45.274Z,572
2017-03-11T15:34:54.803Z,556
2017-03-11T15:36:03.838Z,552
2017-03-11T15:37:12.971Z,544
2017-03-11T15:38:22.129Z,544
2017-03-11T15:39:31.341Z,536
2017-03-11T15:40:41.067Z,532
2017-03-11T15:41:50.054Z,528
2017-03-11T15:42:59.083Z,524
2017-03-11T15:44:08.272Z,524
2017-03-11T15:45:17.279Z,520
2017-03-11T15:46:26.680Z,520
2017-03-11T15:47:35.753Z,524
2017-03-11T15:48:44.753Z,528
2017-03-11T15:49:54.327Z,544
2017-03-11T15:51:03.466Z,556
2017-03-11T15:52:12.968Z,556
2017-03-11T15:53:22.278Z,572
2017-03-11T15:54:31.277Z,592
2017-03-11T15:55:40.375Z,612
2017-03-11T15:56:49.376Z,648
2017-03-11T15:59:07.375Z,744
2017-03-11T16:00:16.416Z,804
2017-03-11T16:01:25.507Z,820
2017-03-11T16:02:39.996Z,856
2017-03-11T16:03:52.402Z,908
2017-03-11T16:05:01.693Z,868